createdAt,value
2023-03-15T00:01:10.080Z,13.03
2023-03-15T00:03:39.445Z,12.95
2023-03-15T00:06:08.478Z,12.92
2023-03-15T00:08:41.632Z,13.01
2023-03-15T00:11:09.052Z,12.94
2023-03-15T00:13:38.499Z,13.00
2023-03-15T00:16:05.741Z,12.96
2023-03-15T00:18:37.457Z,12.95
2023-03-15T00:21:04.124Z,12.90
2023-03-15T00:23:31.195Z,12.92
2023-03-15T00:26:00.818Z,12.88
2023-03-15T00:28:30.427Z,12.96
2023-03-15T00:31:18.983Z,13.03
2023-03-15T00:33:45.861Z,12.97
2023-03-15T00:36:18.860Z,13.28
2023-03-15T00:38:48.529Z,13.25
2023-03-15T00:41:25.100Z,13.25
2023-03-15T00:43:55.306Z,13.30
2023-03-15T00:46:26.108Z,13.14
2023-03-15T00:48:57.551Z,13.20
2023-03-15T00:51:24.689Z,13.29
2023-03-15T00:54:00.598Z,13.31
2023-03-15T00:56:27.873Z,13.32
2023-03-15T00:58:54.487Z,13.34
2023-03-15T01:01:30.334Z,13.48
2023-03-15T01:03:57.992Z,13.37
2023-03-15T01:06:30.535Z,13.26
2023-03-15T01:09:04.656Z,13.30
2023-03-15T01:11:31.373Z,13.28
2023-03-15T01:13:59.767Z,13.29
2023-03-15T01:16:27.975Z,13.17
2023-03-15T01:18:54.760Z,13.25
2023-03-15T01:21:23.871Z,13.17
2023-03-15T01:23:54.351Z,13.11
2023-03-15T01:26:21.001Z,13.04
2023-03-15T01:28:50.117Z,13.01
2023-03-15T01:31:32.073Z,13.06
2023-03-15T01:34:04.937Z,13.20
2023-03-15T01:36:31.640Z,13.20
2023-03-15T01:39:04.159Z,13.46
2023-03-15T01:41:32.871Z,13.05
2023-03-15T01:44:02.180Z,12.90
2023-03-15T01:46:30.325Z,12.77
2023-03-15T01:49:11.540Z,12.92
2023-03-15T01:52:15.856Z,12.95
2023-03-15T01:55:18.993Z,12.97
2023-03-15T01:57:52.100Z,12.95
2023-03-15T02:00:21.022Z,12.72
2023-03-15T02:02:59.333Z,12.63
2023-03-15T02:05:41.293Z,12.75
2023-03-15T02:08:09.124Z,12.76
2023-03-15T02:10:48.200Z,12.82
2023-03-15T02:13:18.928Z,12.62
2023-03-15T02:15:46.342Z,12.63
2023-03-15T02:18:13.663Z,12.58
2023-03-15T02:21:01.516Z,12.59
2023-03-15T02:23:30.328Z,12.53
2023-03-15T02:26:34.825Z,12.64
2023-03-15T02:29:05.439Z,12.58
2023-03-15T02:31:37.275Z,12.42
2023-03-15T02:34:08.713Z,12.64
2023-03-15T02:36:48.748Z,12.71
2023-03-15T02:39:20.260Z,12.73
2023-03-15T02:41:51.028Z,12.86
2023-03-15T02:44:53.628Z,12.65
2023-03-15T02:47:29.703Z,12.50
2023-03-15T02:49:56.558Z,12.37
2023-03-15T02:52:42.502Z,12.39
2023-03-15T02:55:12.048Z,12.55
2023-03-15T02:57:41.622Z,12.51
2023-03-15T03:00:08.821Z,12.72
2023-03-15T03:02:42.192Z,12.66
2023-03-15T03:05:14.496Z,12.63
2023-03-15T03:07:43.643Z,12.68
2023-03-15T03:10:29.223Z,12.61
2023-03-15T03:12:56.025Z,12.55
2023-03-15T03:15:26.270Z,12.50
2023-03-15T03:18:01.507Z,12.69
2023-03-15T03:20:28.101Z,12.83
2023-03-15T03:22:58.014Z,12.94
2023-03-15T03:25:26.131Z,13.14
2023-03-15T03:27:53.068Z,12.72
2023-03-15T03:30:19.677Z,12.59
2023-03-15T03:32:47.205Z,12.48
2023-03-15T03:35:24.306Z,12.32
2023-03-15T03:37:52.062Z,12.31
2023-03-15T03:40:18.795Z,12.23
2023-03-15T03:42:50.274Z,12.25
2023-03-15T03:45:19.547Z,12.37
2023-03-15T03:47:46.178Z,12.30
2023-03-15T03:50:16.639Z,12.37
2023-03-15T03:52:43.970Z,12.32
2023-03-15T03:55:11.715Z,12.19
2023-03-15T03:57:38.266Z,12.29
2023-03-15T04:00:20.509Z,12.31
2023-03-15T04:02:53.111Z,12.36
2023-03-15T04:05:20.236Z,12.37
2023-03-15T04:07:46.783Z,12.29
2023-03-15T04:10:18.758Z,12.26
2023-03-15T04:12:45.423Z,12.22
2023-03-15T04:15:12.352Z,11.98
2023-03-15T04:17:44.806Z,11.81
2023-03-15T04:20:14.628Z,11.97
2023-03-15T04:22:47.086Z,12.03
2023-03-15T04:25:20.638Z,11.94
2023-03-15T04:27:50.583Z,12.04
2023-03-15T04:30:17.943Z,11.86
2023-03-15T04:32:45.175Z,11.80
2023-03-15T04:35:14.483Z,11.77
2023-03-15T04:37:53.706Z,11.90
2023-03-15T04:40:21.294Z,11.77
2023-03-15T04:42:56.904Z,11.63
2023-03-15T04:45:26.663Z,11.81
2023-03-15T04:47:55.923Z,12.08
2023-03-15T04:50:35.282Z,12.21
2023-03-15T04:53:06.170Z,11.87
2023-03-15T04:55:32.762Z,11.77
2023-03-15T04:58:09.686Z,11.99
2023-03-15T05:00:40.372Z,11.91
2023-03-15T05:03:06.988Z,11.76
2023-03-15T05:05:33.879Z,11.88
2023-03-15T05:08:08.151Z,11.67
2023-03-15T05:10:34.759Z,11.74
2023-03-15T05:13:01.352Z,11.72
2023-03-15T05:15:28.206Z,11.69
2023-03-15T05:17:54.903Z,11.59
2023-03-15T05:20:26.040Z,11.62
2023-03-15T05:22:53.817Z,11.51
2023-03-15T05:25:29.584Z,11.59
2023-03-15T05:27:56.285Z,11.70
2023-03-15T05:30:25.605Z,11.52
2023-03-15T05:32:52.288Z,11.55
2023-03-15T05:35:21.941Z,11.45
2023-03-15T05:37:50.892Z,11.43
2023-03-15T05:40:20.762Z,11.47
2023-03-15T05:42:47.583Z,11.36
2023-03-15T05:45:16.045Z,11.46
2023-03-15T05:47:42.840Z,11.38
2023-03-15T05:50:09.918Z,11.52
2023-03-15T05:55:24.700Z,11.31
2023-03-15T05:57:51.422Z,11.26
2023-03-15T06:00:18.618Z,11.49
2023-03-15T06:02:46.503Z,11.40
2023-03-15T06:05:15.871Z,11.46
2023-03-15T06:07:42.468Z,11.32
2023-03-15T06:10:09.459Z,11.51
2023-03-15T06:12:36.004Z,11.35
2023-03-15T06:15:02.663Z,11.30
2023-03-15T06:17:33.996Z,11.26
2023-03-15T06:20:02.338Z,11.20
2023-03-15T06:22:36.355Z,11.16
2023-03-15T06:25:02.932Z,11.13
2023-03-15T06:27:29.565Z,11.25
2023-03-15T06:29:56.183Z,11.38
2023-03-15T06:32:25.646Z,11.37
2023-03-15T06:34:52.498Z,11.49
2023-03-15T06:37:34.517Z,11.77
2023-03-15T06:40:10.942Z,11.74
2023-03-15T06:42:41.237Z,11.84
2023-03-15T06:45:17.206Z,11.87
2023-03-15T06:47:43.754Z,12.16
2023-03-15T06:50:14.119Z,12.26
2023-03-15T06:52:43.614Z,12.49
2023-03-15T06:55:16.810Z,12.45
2023-03-15T06:57:44.788Z,12.46
2023-03-15T07:00:12.088Z,12.42
2023-03-15T07:02:43.203Z,12.56
2023-03-15T07:05:16.062Z,12.41
2023-03-15T07:07:51.554Z,12.53
2023-03-15T07:10:25.876Z,12.61
2023-03-15T07:12:55.003Z,12.54
2023-03-15T07:15:21.530Z,12.51
2023-03-15T07:17:48.150Z,13.10
2023-03-15T07:20:17.066Z,13.19
2023-03-15T07:22:43.589Z,13.18
2023-03-15T07:25:10.265Z,13.21
2023-03-15T07:27:39.837Z,12.80
2023-03-15T07:30:06.830Z,12.74
2023-03-15T07:32:33.524Z,12.78
2023-03-15T07:35:00.194Z,12.69
2023-03-15T07:37:30.775Z,12.81
2023-03-15T07:39:57.383Z,12.51
2023-03-15T07:42:26.542Z,12.49
2023-03-15T07:45:01.875Z,12.39
2023-03-15T07:47:28.510Z,12.59
2023-03-15T07:50:01.302Z,12.65
2023-03-15T07:52:27.868Z,12.65
2023-03-15T07:54:54.423Z,12.59
2023-03-15T07:57:30.690Z,12.57
2023-03-15T07:59:58.062Z,12.37
2023-03-15T08:02:30.717Z,12.49
2023-03-15T08:05:01.286Z,12.38
2023-03-15T08:07:36.595Z,12.14
2023-03-15T08:10:05.042Z,12.45
2023-03-15T08:12:32.682Z,12.74
2023-03-15T08:15:10.212Z,12.36
2023-03-15T08:17:38.621Z,12.04
2023-03-15T08:20:17.438Z,12.16
2023-03-15T08:25:44.137Z,10.69
2023-03-15T08:28:28.938Z,10.60
2023-03-15T08:30:56.475Z,10.38
2023-03-15T08:33:26.101Z,10.20
2023-03-15T08:35:59.505Z,9.98
2023-03-15T08:38:26.632Z,9.87
2023-03-15T08:41:00.209Z,9.99
2023-03-15T08:43:26.816Z,10.09
2023-03-15T08:46:01.055Z,10.33
2023-03-15T08:48:31.203Z,10.10
2023-03-15T08:51:02.996Z,10.07
2023-03-15T08:53:33.754Z,10.30
2023-03-15T08:56:00.792Z,10.24
2023-03-15T08:58:27.391Z,10.42
2023-03-15T09:00:56.685Z,10.13
2023-03-15T09:03:30.767Z,10.24
2023-03-15T09:05:58.513Z,10.07
2023-03-15T09:08:26.215Z,10.00
2023-03-15T09:10:57.196Z,10.34
2023-03-15T09:13:25.022Z,10.23
2023-03-15T09:16:00.523Z,10.34
2023-03-15T09:18:27.112Z,10.49
2023-03-15T09:20:53.657Z,10.67
2023-03-15T09:23:20.222Z,10.74
2023-03-15T09:25:46.810Z,10.96
2023-03-15T09:28:13.363Z,11.86
2023-03-15T09:30:41.431Z,12.07
2023-03-15T09:33:09.968Z,11.70
2023-03-15T09:35:36.932Z,12.33
2023-03-15T09:38:14.055Z,12.01
2023-03-15T09:40:47.896Z,12.26
2023-03-15T09:43:55.598Z,13.17
2023-03-15T09:46:42.401Z,12.34
2023-03-15T09:49:11.878Z,12.10
2023-03-15T09:51:49.488Z,12.14
2023-03-15T09:54:28.071Z,12.07
2023-03-15T09:57:24.462Z,12.37
2023-03-15T09:59:57.022Z,12.74
2023-03-15T10:02:27.429Z,12.68
2023-03-15T10:05:12.065Z,12.53
2023-03-15T10:07:44.291Z,12.38
2023-03-15T10:10:20.864Z,12.68
2023-03-15T10:12:56.583Z,12.76
2023-03-15T10:15:43.157Z,12.55
2023-03-15T10:18:33.928Z,12.49
2023-03-15T10:21:38.264Z,12.88
2023-03-15T10:24:19.150Z,13.31
2023-03-15T10:29:20.012Z,13.08
2023-03-15T10:31:50.693Z,12.94
2023-03-15T10:34:17.586Z,13.21
2023-03-15T10:36:54.347Z,13.55
2023-03-15T10:39:27.346Z,13.70
2023-03-15T10:42:02.985Z,13.57
2023-03-15T10:44:32.608Z,13.64
2023-03-15T10:47:23.226Z,13.66
2023-03-15T10:49:55.673Z,13.44
2023-03-15T10:52:51.311Z,13.32
2023-03-15T10:55:28.931Z,13.05
2023-03-15T10:57:58.444Z,12.85
2023-03-15T11:00:32.504Z,12.68
2023-03-15T11:03:21.638Z,12.76
2023-03-15T11:05:55.543Z,12.42
2023-03-15T11:08:41.038Z,11.77
2023-03-15T11:11:08.670Z,11.04
2023-03-15T11:13:40.334Z,11.02
2023-03-15T11:16:12.937Z,10.89
2023-03-15T11:18:59.561Z,10.92
2023-03-15T11:21:33.129Z,11.03
2023-03-15T11:24:01.947Z,11.09
2023-03-15T11:26:33.359Z,11.36
2023-03-15T11:29:27.666Z,11.82
2023-03-15T11:31:58.194Z,12.26
2023-03-15T11:34:49.598Z,12.92
2023-03-15T11:37:20.669Z,13.13
2023-03-15T11:40:17.163Z,13.09
2023-03-15T11:42:57.267Z,13.33
2023-03-15T11:45:36.838Z,13.39
2023-03-15T11:48:31.317Z,13.38
2023-03-15T11:51:02.106Z,13.28
2023-03-15T11:53:41.600Z,13.74
2023-03-15T11:56:24.660Z,13.14
2023-03-15T11:59:16.086Z,12.85
2023-03-15T12:01:56.501Z,12.86
2023-03-15T12:04:32.077Z,13.00
2023-03-15T12:07:04.604Z,12.96
2023-03-15T12:09:36.514Z,12.82
2023-03-15T12:12:24.936Z,12.80
2023-03-15T12:15:06.815Z,12.70
2023-03-15T12:17:44.135Z,12.51
2023-03-15T12:20:34.245Z,11.91
2023-03-15T12:23:21.859Z,11.61
2023-03-15T12:25:55.440Z,11.19
2023-03-15T12:28:27.732Z,11.10
2023-03-15T12:30:57.929Z,11.02
2023-03-15T12:33:34.123Z,11.20
2023-03-15T12:36:38.082Z,11.13
2023-03-15T12:39:19.334Z,11.40
2023-03-15T12:41:52.292Z,11.14
2023-03-15T12:44:19.717Z,11.35
2023-03-15T12:46:51.165Z,11.10
2023-03-15T12:49:28.175Z,11.21
2023-03-15T12:52:04.389Z,11.12
2023-03-15T12:54:45.245Z,11.33
2023-03-15T12:57:45.993Z,11.03
2023-03-15T13:00:16.188Z,11.16
2023-03-15T13:03:20.130Z,11.26
2023-03-15T13:06:04.065Z,11.00
2023-03-15T13:08:42.711Z,11.04
2023-03-15T13:11:25.095Z,10.96
2023-03-15T13:14:16.438Z,11.13
2023-03-15T13:17:00.860Z,11.19
2023-03-15T13:19:39.972Z,11.02
2023-03-15T13:22:17.791Z,11.06
2023-03-15T13:24:56.834Z,11.45
2023-03-15T13:30:42.725Z,11.44
2023-03-15T13:33:22.901Z,11.51
2023-03-15T13:36:05.515Z,11.30
2023-03-15T13:38:35.538Z,11.67
2023-03-15T13:41:15.932Z,11.56
2023-03-15T13:43:51.148Z,11.90
2023-03-15T13:46:26.290Z,11.78
2023-03-15T13:49:00.724Z,12.14
2023-03-15T13:51:34.927Z,12.09
2023-03-15T13:54:20.298Z,11.83
2023-03-15T13:57:12.517Z,11.64
2023-03-15T14:00:17.078Z,11.63
2023-03-15T14:02:46.956Z,12.08
2023-03-15T14:05:33.682Z,12.47
2023-03-15T14:08:06.175Z,11.74
2023-03-15T14:10:36.063Z,12.01
2023-03-15T14:14:07.213Z,12.34
2023-03-15T14:17:01.235Z,12.06
2023-03-15T14:19:32.724Z,12.12
2023-03-15T14:22:11.733Z,11.91
2023-03-15T14:24:42.336Z,11.87
2023-03-15T14:27:16.055Z,12.24
2023-03-15T14:29:51.779Z,12.58
2023-03-15T14:32:38.552Z,12.78
2023-03-15T14:35:22.406Z,12.53
2023-03-15T14:38:27.144Z,12.21
2023-03-15T14:40:54.403Z,12.50
2023-03-15T14:43:21.121Z,12.40
2023-03-15T14:45:49.242Z,12.26
2023-03-15T14:48:42.095Z,12.66
2023-03-15T14:51:23.465Z,12.67
2023-03-15T14:53:58.363Z,12.34
2023-03-15T14:56:25.633Z,12.53
2023-03-15T14:58:52.477Z,12.83
2023-03-15T15:01:23.901Z,12.69
2023-03-15T15:04:01.705Z,12.57
2023-03-15T15:06:41.920Z,12.73
2023-03-15T15:09:10.312Z,12.89
2023-03-15T15:11:36.972Z,12.99
2023-03-15T15:14:16.983Z,12.90
2023-03-15T15:16:55.242Z,12.83
2023-03-15T15:19:21.874Z,12.55
2023-03-15T15:21:51.358Z,12.62
2023-03-15T15:24:24.783Z,12.71
2023-03-15T15:29:35.051Z,12.63
2023-03-15T15:32:04.656Z,12.54
2023-03-15T15:34:34.280Z,12.81
2023-03-15T15:37:03.372Z,12.86
2023-03-15T15:39:29.973Z,12.77
2023-03-15T15:42:05.735Z,12.83
2023-03-15T15:44:32.294Z,12.52
2023-03-15T15:47:02.387Z,12.87
2023-03-15T15:49:40.386Z,12.88
2023-03-15T15:52:12.307Z,12.93
2023-03-15T15:54:39.637Z,13.07
2023-03-15T15:57:11.582Z,12.81
2023-03-15T15:59:42.665Z,12.64
2023-03-15T16:02:15.075Z,12.55
2023-03-15T16:04:44.840Z,12.62
2023-03-15T16:07:11.520Z,12.83
2023-03-15T16:09:55.440Z,13.10
2023-03-15T16:12:44.515Z,13.33
2023-03-15T16:15:17.242Z,13.09
2023-03-15T16:17:45.284Z,13.21
2023-03-15T16:20:18.413Z,13.15
2023-03-15T16:23:00.963Z,12.74
2023-03-15T16:25:31.907Z,12.55
2023-03-15T16:28:03.329Z,12.58
2023-03-15T16:30:46.365Z,12.86
2023-03-15T16:33:21.469Z,12.79
2023-03-15T16:35:53.533Z,12.72
2023-03-15T16:38:26.449Z,13.30
2023-03-15T16:40:58.393Z,12.68
2023-03-15T16:43:30.750Z,12.99
2023-03-15T16:46:00.573Z,12.84
2023-03-15T16:48:29.579Z,12.46
2023-03-15T16:50:56.253Z,12.42
2023-03-15T16:53:23.005Z,12.56
2023-03-15T16:55:50.754Z,12.90
2023-03-15T16:58:33.200Z,12.62
2023-03-15T17:01:09.461Z,12.42
2023-03-15T17:06:30.059Z,13.19
2023-03-15T17:09:08.827Z,13.08
2023-03-15T17:11:38.283Z,12.50
2023-03-15T17:14:07.002Z,12.23
2023-03-15T17:16:33.643Z,12.03
2023-03-15T17:19:06.194Z,11.93
2023-03-15T17:21:37.331Z,11.82
2023-03-15T17:24:04.446Z,11.76
2023-03-15T17:26:35.002Z,11.70
2023-03-15T17:29:08.093Z,11.73
2023-03-15T17:31:35.789Z,11.60
2023-03-15T17:34:03.529Z,11.56
2023-03-15T17:36:43.214Z,11.44
2023-03-15T17:39:17.724Z,11.41
2023-03-15T17:41:54.575Z,11.37
2023-03-15T17:44:26.852Z,11.29
2023-03-15T17:47:04.058Z,11.24
2023-03-15T17:49:31.945Z,11.22
2023-03-15T17:52:00.064Z,11.12
2023-03-15T17:54:31.835Z,11.15
2023-03-15T17:57:01.214Z,11.13
2023-03-15T17:59:28.757Z,11.05
2023-03-15T18:02:06.623Z,11.13
2023-03-15T18:04:33.316Z,11.00
2023-03-15T18:07:00.162Z,10.96
2023-03-15T18:09:33.451Z,11.02
2023-03-15T18:12:04.321Z,10.94
2023-03-15T18:14:49.350Z,10.90
2023-03-15T18:17:17.408Z,10.90
2023-03-15T18:19:52.934Z,10.85
2023-03-15T18:22:34.578Z,10.87
2023-03-15T18:25:01.527Z,10.88
2023-03-15T18:27:28.161Z,10.89
2023-03-15T18:29:54.779Z,10.85
2023-03-15T18:32:21.482Z,10.78
2023-03-15T18:34:48.397Z,10.79
2023-03-15T18:37:22.747Z,10.69
2023-03-15T18:39:52.386Z,10.66
2023-03-15T18:42:26.568Z,10.61
2023-03-15T18:44:54.629Z,10.52
2023-03-15T18:47:21.334Z,10.45
2023-03-15T18:49:55.340Z,10.34
2023-03-15T18:52:26.149Z,10.31
2023-03-15T18:55:03.056Z,10.26
2023-03-15T19:00:29.596Z,10.22
2023-03-15T19:03:02.925Z,10.27
2023-03-15T19:08:06.776Z,9.97
2023-03-15T19:10:33.645Z,9.91
2023-03-15T19:13:09.027Z,9.80
2023-03-15T19:15:39.123Z,9.77
2023-03-15T19:18:15.561Z,9.76
2023-03-15T19:20:59.474Z,9.76
2023-03-15T19:23:28.557Z,9.73
2023-03-15T19:26:04.424Z,9.63
2023-03-15T19:28:47.797Z,9.58
2023-03-15T19:31:21.184Z,9.60
2023-03-15T19:33:51.609Z,9.59
2023-03-15T19:36:31.733Z,9.56
2023-03-15T19:38:58.329Z,9.52
2023-03-15T19:41:26.728Z,9.52
2023-03-15T19:43:53.246Z,9.57
2023-03-15T19:46:19.882Z,9.59
2023-03-15T19:48:46.558Z,9.53
2023-03-15T19:51:13.159Z,9.46
2023-03-15T19:53:39.780Z,9.43
2023-03-15T19:56:07.378Z,9.41
2023-03-15T19:58:36.294Z,9.33
2023-03-15T20:01:02.953Z,9.32
2023-03-15T20:03:32.324Z,9.30
2023-03-15T20:06:04.497Z,9.28
2023-03-15T20:08:31.529Z,9.28
2023-03-15T20:11:04.443Z,9.32
2023-03-15T20:13:31.705Z,9.32
2023-03-15T20:16:01.675Z,9.25
2023-03-15T20:18:28.330Z,9.17
2023-03-15T20:21:02.970Z,9.18
2023-03-15T20:23:33.707Z,9.17
2023-03-15T20:26:25.384Z,9.19
2023-03-15T20:29:01.544Z,9.08
2023-03-15T20:31:31.532Z,9.08
2023-03-15T20:34:11.462Z,9.09
2023-03-15T20:36:49.882Z,9.07
2023-03-15T20:39:19.231Z,9.03
2023-03-15T20:41:55.401Z,9.07
2023-03-15T20:44:37.257Z,9.07
2023-03-15T20:47:13.594Z,9.07
2023-03-15T20:49:40.474Z,9.18
2023-03-15T20:52:18.018Z,9.27
2023-03-15T20:54:46.878Z,9.19
2023-03-15T20:57:47.581Z,9.13
2023-03-15T21:00:25.873Z,9.03
2023-03-15T21:03:03.751Z,9.03
2023-03-15T21:05:31.602Z,8.99
2023-03-15T21:08:01.701Z,9.02
2023-03-15T21:10:28.614Z,8.97
2023-03-15T21:12:55.424Z,8.90
2023-03-15T21:15:31.310Z,8.98
2023-03-15T21:17:59.201Z,9.08
2023-03-15T21:20:30.612Z,9.09
2023-03-15T21:23:04.211Z,9.04
2023-03-15T21:25:39.192Z,9.03
2023-03-15T21:28:09.212Z,8.95
2023-03-15T21:30:52.149Z,8.87
2023-03-15T21:33:39.064Z,8.84
2023-03-15T21:36:11.391Z,8.78
2023-03-15T21:38:38.042Z,8.82
2023-03-15T21:41:09.302Z,8.81
2023-03-15T21:43:41.692Z,8.79
2023-03-15T21:46:12.094Z,8.72
2023-03-15T21:48:39.125Z,8.71
2023-03-15T21:51:09.137Z,8.78
2023-03-15T21:53:36.822Z,8.82
2023-03-15T21:56:13.577Z,8.96
2023-03-15T21:58:49.901Z,9.04
2023-03-15T22:01:25.258Z,9.21
2023-03-15T22:03:52.405Z,9.36
2023-03-15T22:06:19.913Z,9.17
2023-03-15T22:08:46.496Z,9.26
2023-03-15T22:11:15.563Z,9.20
2023-03-15T22:13:43.437Z,9.62
2023-03-15T22:16:14.959Z,9.78
2023-03-15T22:18:41.585Z,9.54
2023-03-15T22:21:17.044Z,9.19
2023-03-15T22:23:47.187Z,9.11
2023-03-15T22:26:16.874Z,9.05
2023-03-15T22:28:51.077Z,9.48
2023-03-15T22:31:43.729Z,9.16
2023-03-15T22:34:10.477Z,8.93
2023-03-15T22:36:39.978Z,9.50
2023-03-15T22:39:13.596Z,9.37
2023-03-15T22:41:40.267Z,8.84
2023-03-15T22:44:12.317Z,8.60
2023-03-15T22:46:38.895Z,8.62
2023-03-15T22:49:05.470Z,8.72
2023-03-15T22:51:54.577Z,8.84
2023-03-15T22:57:11.571Z,8.67
2023-03-15T22:59:41.346Z,8.75
2023-03-15T23:02:08.141Z,8.78
2023-03-15T23:04:36.441Z,8.80
2023-03-15T23:07:05.396Z,8.70
2023-03-15T23:09:32.275Z,8.47
2023-03-15T23:12:00.531Z,8.60
2023-03-15T23:14:32.384Z,8.63
2023-03-15T23:17:04.823Z,8.64
2023-03-15T23:19:32.583Z,8.72
2023-03-15T23:21:59.332Z,8.57
2023-03-15T23:24:25.925Z,8.74
2023-03-15T23:26:52.729Z,8.60
2023-03-15T23:29:28.418Z,8.69
2023-03-15T23:31:56.124Z,8.51
2023-03-15T23:34:22.888Z,8.45
2023-03-15T23:36:50.478Z,8.54
2023-03-15T23:39:17.217Z,8.54
2023-03-15T23:41:46.287Z,8.59
2023-03-15T23:47:06.700Z,8.43
2023-03-15T23:49:37.845Z,8.24
2023-03-15T23:52:07.948Z,8.26
2023-03-15T23:54:35.454Z,8.44
2023-03-15T23:57:01.993Z,8.26
2023-03-15T23:59:31.790Z,8.33
